createdAt,value
2023-05-19T00:00:18.809Z,97675.38
2023-05-19T00:03:09.196Z,97669.13
2023-05-19T00:05:41.003Z,97670.73
2023-05-19T00:08:11.040Z,97673.29
2023-05-19T00:10:39.336Z,97670.36
2023-05-19T00:13:08.252Z,97669.59
2023-05-19T00:15:36.682Z,97671.35
2023-05-19T00:18:04.728Z,97671.48
2023-05-19T00:20:32.868Z,97672.45
2023-05-19T00:23:01.954Z,97671.92
2023-05-19T00:25:29.887Z,97674.07
2023-05-19T00:27:59.253Z,97675.15
2023-05-19T00:30:27.591Z,97674.63
2023-05-19T00:32:56.008Z,97674.60
2023-05-19T00:35:24.748Z,97670.52
2023-05-19T00:37:52.639Z,97669.09
2023-05-19T00:40:21.008Z,97674.30
2023-05-19T00:42:48.883Z,97676.36
2023-05-19T00:45:16.828Z,97679.20
2023-05-19T00:47:44.854Z,97676.79
2023-05-19T00:50:12.725Z,97676.59
2023-05-19T00:52:40.683Z,97679.23
2023-05-19T00:55:09.876Z,97682.61
2023-05-19T00:57:38.868Z,97682.86
2023-05-19T01:00:07.475Z,97686.29
2023-05-19T01:02:39.999Z,97693.70
2023-05-19T01:05:09.416Z,97696.94
2023-05-19T01:07:38.200Z,97693.66
2023-05-19T01:10:06.727Z,97694.85
2023-05-19T01:12:35.994Z,97693.80
2023-05-19T01:15:05.429Z,97694.34
2023-05-19T01:17:38.045Z,97694.56
2023-05-19T01:20:18.989Z,97697.84
2023-05-19T01:23:05.249Z,97698.45
2023-05-19T01:26:10.762Z,97699.10
2023-05-19T01:28:56.888Z,97699.52
2023-05-19T01:31:26.887Z,97695.21
2023-05-19T01:33:55.899Z,97697.30
2023-05-19T01:36:27.032Z,97702.20
2023-05-19T01:39:00.433Z,97702.92
2023-05-19T01:41:30.366Z,97700.75
2023-05-19T01:43:58.600Z,97699.55
2023-05-19T01:46:26.820Z,97702.91
2023-05-19T01:48:55.084Z,97697.91
2023-05-19T01:51:23.034Z,97695.87
2023-05-19T01:53:51.407Z,97700.27
2023-05-19T01:56:34.114Z,97697.02
2023-05-19T01:59:16.051Z,97695.14
2023-05-19T02:01:53.322Z,97697.52
2023-05-19T02:04:44.956Z,97696.27
2023-05-19T02:07:40.574Z,97693.66
2023-05-19T02:10:24.396Z,97696.44
2023-05-19T02:12:53.824Z,97694.85
2023-05-19T02:15:26.680Z,97687.34
2023-05-19T02:17:55.839Z,97688.69
2023-05-19T02:20:23.765Z,97690.27
2023-05-19T02:22:51.863Z,97690.89
2023-05-19T02:25:19.790Z,97688.39
2023-05-19T02:27:49.253Z,97695.08
2023-05-19T02:30:17.219Z,97697.13
2023-05-19T02:32:47.973Z,97702.91
2023-05-19T02:35:16.263Z,97706.71
2023-05-19T02:37:44.408Z,97710.77
2023-05-19T02:40:12.428Z,97713.02
2023-05-19T02:42:40.475Z,97717.06
2023-05-19T02:45:08.921Z,97715.72
2023-05-19T02:47:38.390Z,97720.96
2023-05-19T02:50:06.921Z,97723.54
2023-05-19T02:52:34.923Z,97727.02
2023-05-19T02:55:02.767Z,97725.89
2023-05-19T02:57:31.763Z,97723.16
2023-05-19T02:59:59.942Z,97720.91
2023-05-19T03:02:27.977Z,97719.94
2023-05-19T03:04:56.004Z,97718.83
2023-05-19T03:07:25.364Z,97716.91
2023-05-19T03:09:53.621Z,97717.98
2023-05-19T03:12:22.045Z,97723.64
2023-05-19T03:14:50.145Z,97724.58
2023-05-19T03:17:18.099Z,97729.13
2023-05-19T03:19:46.094Z,97730.77
2023-05-19T03:22:13.929Z,97731.23
2023-05-19T03:24:42.190Z,97733.36
2023-05-19T03:27:10.401Z,97736.60
2023-05-19T03:29:38.449Z,97736.92
2023-05-19T03:32:06.554Z,97730.79
2023-05-19T03:34:35.452Z,97732.79
2023-05-19T03:37:03.482Z,97734.09
2023-05-19T03:39:31.649Z,97735.33
2023-05-19T03:41:59.609Z,97737.30
2023-05-19T03:44:27.551Z,97742.63
2023-05-19T03:46:55.548Z,97744.92
2023-05-19T03:49:23.502Z,97749.71
2023-05-19T03:51:51.674Z,97753.86
2023-05-19T03:54:21.333Z,97750.62
2023-05-19T03:56:49.497Z,97754.30
2023-05-19T03:59:17.370Z,97752.08
2023-05-19T04:01:46.537Z,97746.98
2023-05-19T04:04:14.645Z,97746.51
2023-05-19T04:06:42.486Z,97744.36
2023-05-19T04:09:14.737Z,97741.30
2023-05-19T04:11:43.153Z,97739.45
2023-05-19T04:14:11.093Z,97738.59
2023-05-19T04:16:39.178Z,97743.13
2023-05-19T04:19:07.324Z,97749.02
2023-05-19T04:21:35.338Z,97751.48
2023-05-19T04:24:06.439Z,97758.83
2023-05-19T04:26:34.636Z,97764.54
2023-05-19T04:29:04.935Z,97762.02
2023-05-19T04:31:34.440Z,97759.55
2023-05-19T04:34:02.463Z,97756.86
2023-05-19T04:36:31.366Z,97758.19
2023-05-19T04:39:02.317Z,97756.05
2023-05-19T04:41:30.313Z,97753.69
2023-05-19T04:43:58.446Z,97755.46
2023-05-19T04:46:27.510Z,97751.02
2023-05-19T04:48:57.180Z,97750.39
2023-05-19T04:51:30.280Z,97754.61
2023-05-19T04:53:58.534Z,97760.25
2023-05-19T04:56:27.587Z,97756.33
2023-05-19T04:58:55.633Z,97758.53
2023-05-19T05:01:26.041Z,97757.78
2023-05-19T05:03:55.599Z,97760.67
2023-05-19T05:06:23.590Z,97762.86
2023-05-19T05:08:52.942Z,97765.79
2023-05-19T05:11:21.386Z,97770.91
2023-05-19T05:13:50.069Z,97772.07
2023-05-19T05:16:19.086Z,97770.17
2023-05-19T05:18:47.455Z,97764.61
2023-05-19T05:21:15.667Z,97764.83
2023-05-19T05:23:43.850Z,97771.16
2023-05-19T05:26:23.318Z,97778.70
2023-05-19T05:28:51.276Z,97778.39
2023-05-19T05:31:19.308Z,97778.23
2023-05-19T05:33:47.298Z,97776.42
2023-05-19T05:36:15.268Z,97775.23
2023-05-19T05:38:43.352Z,97776.08
2023-05-19T05:41:11.294Z,97783.22
2023-05-19T05:43:39.198Z,97781.90
2023-05-19T05:46:07.063Z,97780.54
2023-05-19T05:48:35.725Z,97786.83
2023-05-19T05:51:04.224Z,97787.69
2023-05-19T05:53:38.792Z,97785.84
2023-05-19T05:56:08.096Z,97781.48
2023-05-19T05:58:37.731Z,97784.84
2023-05-19T06:01:05.686Z,97785.15
2023-05-19T06:03:33.649Z,97785.32
2023-05-19T06:06:01.971Z,97785.57
2023-05-19T06:08:29.910Z,97783.05
2023-05-19T06:10:58.939Z,97786.69
2023-05-19T06:13:26.952Z,97787.91
2023-05-19T06:15:54.799Z,97788.38
2023-05-19T06:18:22.770Z,97786.55
2023-05-19T06:20:50.948Z,97789.03
2023-05-19T06:23:18.832Z,97793.50
2023-05-19T06:25:46.866Z,97795.54
2023-05-19T06:28:15.003Z,97796.85
2023-05-19T06:30:42.878Z,97795.59
2023-05-19T06:33:10.871Z,97793.13
2023-05-19T06:35:38.754Z,97798.70
2023-05-19T06:38:06.728Z,97797.48
2023-05-19T06:40:34.721Z,97797.22
2023-05-19T06:43:03.605Z,97793.63
2023-05-19T06:45:31.579Z,97794.02
2023-05-19T06:47:59.559Z,97793.75
2023-05-19T06:50:27.701Z,97796.66
2023-05-19T06:52:57.275Z,97789.83
2023-05-19T06:55:25.177Z,97791.45
2023-05-19T06:57:53.068Z,97794.48
2023-05-19T07:00:23.657Z,97794.35
2023-05-19T07:02:52.161Z,97796.13
2023-05-19T07:05:20.204Z,97797.33
2023-05-19T07:07:48.054Z,97797.18
2023-05-19T07:10:15.977Z,97798.08
2023-05-19T07:12:44.129Z,97802.01
2023-05-19T07:15:12.315Z,97802.80
2023-05-19T07:17:40.250Z,97805.60
2023-05-19T07:20:11.582Z,97805.75
2023-05-19T07:22:40.133Z,97806.29
2023-05-19T07:25:08.467Z,97804.62
2023-05-19T07:27:37.054Z,97801.30
2023-05-19T07:30:05.364Z,97799.73
2023-05-19T07:32:33.491Z,97799.27
2023-05-19T07:35:01.536Z,97803.03
2023-05-19T07:37:29.479Z,97801.60
2023-05-19T07:39:57.382Z,97801.45
2023-05-19T07:42:25.488Z,97799.67
2023-05-19T07:44:53.404Z,97797.46
2023-05-19T07:47:21.269Z,97794.13
2023-05-19T07:49:51.673Z,97793.73
2023-05-19T07:52:19.918Z,97795.77
2023-05-19T07:54:47.876Z,97795.19
2023-05-19T07:57:16.078Z,97792.39
2023-05-19T07:59:43.994Z,97791.13
2023-05-19T08:02:11.923Z,97786.94
2023-05-19T08:04:39.970Z,97785.08
2023-05-19T08:07:07.972Z,97783.90
2023-05-19T08:09:36.084Z,97787.44
2023-05-19T08:12:05.302Z,97787.45
2023-05-19T08:14:34.994Z,97788.56
2023-05-19T08:17:02.994Z,97785.42
2023-05-19T08:19:30.931Z,97788.44
2023-05-19T08:22:01.302Z,97786.56
2023-05-19T08:24:33.926Z,97793.73
2023-05-19T08:27:01.893Z,97791.67
2023-05-19T08:29:29.835Z,97787.17
2023-05-19T08:31:58.606Z,97788.20
2023-05-19T08:34:26.457Z,97787.39
2023-05-19T08:36:57.772Z,97783.06
2023-05-19T08:39:27.323Z,97784.09
2023-05-19T08:41:55.535Z,97790.20
2023-05-19T08:44:23.490Z,97795.98
2023-05-19T08:46:54.416Z,97798.13
2023-05-19T08:49:30.770Z,97799.65
2023-05-19T08:52:31.078Z,97803.95
2023-05-19T08:55:09.627Z,97803.56
2023-05-19T08:57:38.709Z,97808.16
2023-05-19T09:00:12.011Z,97809.13
2023-05-19T09:02:50.555Z,97810.34
2023-05-19T09:05:29.558Z,97808.32
2023-05-19T09:07:57.751Z,97800.64
2023-05-19T09:10:27.176Z,97797.27
2023-05-19T09:12:57.441Z,97790.90
2023-05-19T09:15:28.457Z,97785.63
2023-05-19T09:18:28.793Z,97791.14
2023-05-19T09:21:02.629Z,97794.88
2023-05-19T09:23:34.373Z,97793.81
2023-05-19T09:26:07.966Z,97792.70
2023-05-19T09:28:37.798Z,97792.09
2023-05-19T09:31:10.977Z,97790.23
2023-05-19T09:33:41.054Z,97790.81
2023-05-19T09:36:11.556Z,97789.73
2023-05-19T09:38:40.485Z,97786.46
2023-05-19T09:41:09.199Z,97780.19
2023-05-19T09:43:37.289Z,97776.30
2023-05-19T09:46:12.180Z,97774.38
2023-05-19T09:48:42.596Z,97774.70
2023-05-19T09:51:11.046Z,97772.00
2023-05-19T09:53:39.495Z,97769.30
2023-05-19T09:56:08.987Z,97767.66
2023-05-19T09:58:37.719Z,97764.53
2023-05-19T10:01:07.747Z,97761.84
2023-05-19T10:03:36.912Z,97754.62
2023-05-19T10:06:07.048Z,97752.36
2023-05-19T10:08:36.081Z,97748.46
2023-05-19T10:11:05.738Z,97741.74
2023-05-19T10:13:38.697Z,97735.26
2023-05-19T10:16:08.660Z,97729.63
2023-05-19T10:18:39.986Z,97728.55
2023-05-19T10:21:09.647Z,97729.25
2023-05-19T10:23:38.494Z,97728.05
2023-05-19T10:26:08.180Z,97721.07
2023-05-19T10:28:39.696Z,97718.27
2023-05-19T10:31:11.417Z,97711.84
2023-05-19T10:33:57.396Z,97707.98
2023-05-19T10:36:46.309Z,97704.80
2023-05-19T10:39:22.470Z,97704.59
2023-05-19T10:42:09.819Z,97702.05
2023-05-19T10:45:16.326Z,97704.52
2023-05-19T10:47:45.291Z,97696.73
2023-05-19T10:50:13.961Z,97691.29
2023-05-19T10:52:41.849Z,97692.68
2023-05-19T10:55:17.504Z,97690.29
2023-05-19T10:57:56.973Z,97690.55
2023-05-19T11:00:29.598Z,97691.41
2023-05-19T11:03:18.763Z,97696.22
2023-05-19T11:05:50.060Z,97696.25
2023-05-19T11:08:35.002Z,97692.33
2023-05-19T11:11:16.863Z,97689.31
2023-05-19T11:13:52.066Z,97693.70
2023-05-19T11:16:28.938Z,97697.41
2023-05-19T11:18:59.240Z,97696.45
2023-05-19T11:21:48.526Z,97696.70
2023-05-19T11:24:37.543Z,97695.86
2023-05-19T11:27:34.681Z,97686.70
2023-05-19T11:30:19.260Z,97681.88
2023-05-19T11:32:48.440Z,97677.98
2023-05-19T11:35:19.185Z,97678.21
2023-05-19T11:37:49.135Z,97677.19
2023-05-19T11:40:18.026Z,97674.16
2023-05-19T11:42:46.194Z,97674.22
2023-05-19T11:45:14.192Z,97671.23
2023-05-19T11:48:00.139Z,97667.32
2023-05-19T11:50:31.881Z,97666.81
2023-05-19T11:53:01.578Z,97669.24
2023-05-19T11:55:30.529Z,97667.52
2023-05-19T12:00:39.829Z,97663.19
2023-05-19T12:03:09.309Z,97661.08
2023-05-19T12:05:42.818Z,97653.89
2023-05-19T12:08:17.514Z,97655.95
2023-05-19T12:10:48.979Z,97650.02
2023-05-19T12:13:17.177Z,97652.81
2023-05-19T12:15:45.299Z,97657.38
2023-05-19T12:18:13.441Z,97650.29
2023-05-19T12:20:41.602Z,97647.11
2023-05-19T12:23:10.298Z,97644.48
2023-05-19T12:25:38.585Z,97642.33
2023-05-19T12:28:07.304Z,97638.82
2023-05-19T12:30:41.090Z,97637.93
2023-05-19T12:33:09.853Z,97637.37
2023-05-19T12:35:37.946Z,97637.91
2023-05-19T12:38:06.837Z,97640.91
2023-05-19T12:40:36.211Z,97638.92
2023-05-19T12:43:05.594Z,97636.63
2023-05-19T12:45:37.384Z,97634.58
2023-05-19T12:48:06.749Z,97634.32
2023-05-19T12:50:37.956Z,97635.63
2023-05-19T12:53:10.134Z,97636.56
2023-05-19T12:55:42.968Z,97639.48
2023-05-19T12:58:15.975Z,97631.88
2023-05-19T13:00:47.336Z,97628.81
2023-05-19T13:03:20.452Z,97634.09
2023-05-19T13:05:50.437Z,97641.06
2023-05-19T13:08:20.590Z,97644.63
2023-05-19T13:10:49.733Z,97646.62
2023-05-19T13:13:17.854Z,97650.94
2023-05-19T13:15:49.068Z,97642.31
2023-05-19T13:18:17.554Z,97636.20
2023-05-19T13:20:47.072Z,97636.13
2023-05-19T13:23:16.431Z,97641.70
2023-05-19T13:25:44.533Z,97645.39
2023-05-19T13:28:12.897Z,97645.88
2023-05-19T13:30:41.991Z,97648.61
2023-05-19T13:33:10.231Z,97664.55
2023-05-19T13:35:39.265Z,97679.67
2023-05-19T13:38:10.185Z,97694.45
2023-05-19T13:40:39.808Z,97695.61
2023-05-19T13:43:08.905Z,97697.32
2023-05-19T13:45:37.301Z,97701.84
2023-05-19T13:48:07.324Z,97696.26
2023-05-19T13:50:35.769Z,97690.48
2023-05-19T13:53:03.882Z,97685.08
2023-05-19T13:55:32.927Z,97684.13
2023-05-19T13:58:00.990Z,97683.06
2023-05-19T14:00:31.752Z,97687.48
2023-05-19T14:03:00.634Z,97692.79
2023-05-19T14:05:29.159Z,97694.43
2023-05-19T14:07:58.025Z,97695.52
2023-05-19T14:10:26.134Z,97692.05
2023-05-19T14:13:25.227Z,97686.64
2023-05-19T14:15:42.113Z,97686.73
2023-05-19T14:18:12.135Z,97687.64
2023-05-19T14:20:40.573Z,97685.31
2023-05-19T14:23:08.531Z,97685.86
2023-05-19T14:25:36.498Z,97687.42
2023-05-19T14:28:04.614Z,97687.97
2023-05-19T14:30:32.898Z,97687.17
2023-05-19T14:33:01.236Z,97687.63
2023-05-19T14:35:29.298Z,97689.25
2023-05-19T14:37:57.154Z,97687.98
2023-05-19T14:40:25.185Z,97685.73
2023-05-19T14:42:53.048Z,97683.04
2023-05-19T14:45:21.108Z,97679.91
2023-05-19T14:47:48.984Z,97682.64
2023-05-19T14:50:17.208Z,97684.14
2023-05-19T14:52:45.163Z,97687.79
2023-05-19T14:55:13.229Z,97685.23
2023-05-19T14:57:41.249Z,97680.77
2023-05-19T15:00:10.454Z,97682.09
2023-05-19T15:02:38.879Z,97679.23
2023-05-19T15:05:08.164Z,97674.52
2023-05-19T15:07:36.523Z,97669.64
2023-05-19T15:10:04.997Z,97671.19
2023-05-19T15:12:32.992Z,97667.91
2023-05-19T15:15:01.402Z,97658.29
2023-05-19T15:17:29.973Z,97654.71
2023-05-19T15:19:58.055Z,97646.55
2023-05-19T15:22:26.412Z,97641.88
2023-05-19T15:24:54.345Z,97642.45
2023-05-19T15:27:23.003Z,97641.41
2023-05-19T15:29:51.295Z,97641.95
2023-05-19T15:32:20.358Z,97639.19
2023-05-19T15:34:48.345Z,97641.84
2023-05-19T15:37:16.552Z,97637.36
2023-05-19T15:39:44.584Z,97636.30
2023-05-19T15:42:12.515Z,97637.73
2023-05-19T15:44:40.504Z,97635.54
2023-05-19T15:47:08.426Z,97637.02
2023-05-19T15:49:36.695Z,97634.67
2023-05-19T15:52:04.853Z,97635.89
2023-05-19T15:54:32.791Z,97635.16
2023-05-19T15:57:01.044Z,97635.48
2023-05-19T15:59:29.066Z,97635.52
2023-05-19T16:01:57.782Z,97638.44
2023-05-19T16:04:25.716Z,97640.19
2023-05-19T16:06:53.679Z,97641.25
2023-05-19T16:09:21.523Z,97638.41
2023-05-19T16:11:49.629Z,97639.99
2023-05-19T16:14:17.668Z,97638.83
2023-05-19T16:16:45.680Z,97637.84
2023-05-19T16:19:13.764Z,97640.73
2023-05-19T16:21:41.725Z,97643.40
2023-05-19T16:24:09.754Z,97647.31
2023-05-19T16:26:37.620Z,97646.77
2023-05-19T16:29:05.456Z,97649.21
2023-05-19T16:31:33.407Z,97656.73
2023-05-19T16:34:01.411Z,97661.35
2023-05-19T16:36:29.389Z,97659.95
2023-05-19T16:38:57.334Z,97660.95
2023-05-19T16:41:26.621Z,97666.08
2023-05-19T16:43:54.657Z,97671.35
2023-05-19T16:46:22.829Z,97675.38
2023-05-19T16:48:50.917Z,97675.05
2023-05-19T16:51:18.797Z,97674.63
2023-05-19T16:53:46.780Z,97674.48
2023-05-19T16:56:14.821Z,97678.98
2023-05-19T16:58:42.787Z,97683.00
2023-05-19T17:01:12.071Z,97680.52
2023-05-19T17:03:40.108Z,97685.55
2023-05-19T17:06:08.689Z,97687.69
2023-05-19T17:08:36.694Z,97690.62
2023-05-19T17:11:06.339Z,97690.37
2023-05-19T17:13:36.311Z,97693.79
2023-05-19T17:16:04.362Z,97692.52
2023-05-19T17:18:32.376Z,97696.58
2023-05-19T17:21:03.885Z,97698.41
2023-05-19T17:23:32.925Z,97702.62
2023-05-19T17:26:01.875Z,97705.86
2023-05-19T17:28:30.376Z,97707.09
2023-05-19T17:30:58.518Z,97711.81
2023-05-19T17:33:26.601Z,97707.77
2023-05-19T17:35:54.577Z,97708.94
2023-05-19T17:38:22.544Z,97713.45
2023-05-19T17:40:50.438Z,97718.10
2023-05-19T17:43:18.476Z,97716.79
2023-05-19T17:45:47.337Z,97716.89
2023-05-19T17:48:16.060Z,97717.73
2023-05-19T17:50:48.131Z,97718.10
2023-05-19T17:53:16.428Z,97718.71
2023-05-19T17:55:53.719Z,97717.55
2023-05-19T17:58:22.580Z,97717.80
2023-05-19T18:00:51.153Z,97717.58
2023-05-19T18:03:19.568Z,97716.98
2023-05-19T18:05:48.368Z,97715.77
2023-05-19T18:08:16.868Z,97717.80
2023-05-19T18:10:46.245Z,97723.55
2023-05-19T18:13:14.402Z,97728.86
2023-05-19T18:15:42.628Z,97731.66
2023-05-19T18:18:11.000Z,97736.50
2023-05-19T18:20:41.122Z,97741.48
2023-05-19T18:23:09.174Z,97747.55
2023-05-19T18:25:37.440Z,97749.66
2023-05-19T18:28:05.617Z,97755.21
2023-05-19T18:30:33.801Z,97752.66
2023-05-19T18:33:03.934Z,97755.41
2023-05-19T18:35:31.994Z,97753.09
2023-05-19T18:37:59.847Z,97756.42
2023-05-19T18:40:27.732Z,97754.36
2023-05-19T18:42:55.677Z,97754.92
2023-05-19T18:45:23.624Z,97756.02
2023-05-19T18:47:51.700Z,97756.79
2023-05-19T18:50:20.648Z,97759.71
2023-05-19T18:52:48.519Z,97760.77
2023-05-19T18:55:16.441Z,97763.42
2023-05-19T18:57:44.338Z,97763.58
2023-05-19T19:00:13.788Z,97765.23
2023-05-19T19:02:41.787Z,97766.14
2023-05-19T19:05:10.174Z,97767.70
2023-05-19T19:07:42.141Z,97772.85
2023-05-19T19:10:10.544Z,97769.66
2023-05-19T19:12:38.961Z,97768.12
2023-05-19T19:15:07.275Z,97771.63
2023-05-19T19:17:35.500Z,97772.50
2023-05-19T19:20:03.827Z,97774.13
2023-05-19T19:22:31.784Z,97774.59
2023-05-19T19:24:59.810Z,97778.77
2023-05-19T19:27:31.060Z,97780.01
2023-05-19T19:29:59.603Z,97779.83
2023-05-19T19:32:27.720Z,97779.35
2023-05-19T19:34:56.077Z,97780.17
2023-05-19T19:37:24.026Z,97782.80
2023-05-19T19:39:51.951Z,97783.38
2023-05-19T19:42:19.890Z,97786.45
2023-05-19T19:44:47.879Z,97788.12
2023-05-19T19:47:15.763Z,97789.05
2023-05-19T19:49:43.773Z,97793.62
2023-05-19T19:52:11.668Z,97792.85
2023-05-19T19:54:39.493Z,97793.83
2023-05-19T19:57:08.619Z,97795.38
2023-05-19T19:59:36.499Z,97796.79
2023-05-19T20:02:04.625Z,97799.78
2023-05-19T20:04:32.760Z,97800.46
2023-05-19T20:07:00.886Z,97797.71
2023-05-19T20:09:28.984Z,97798.77
2023-05-19T20:11:56.988Z,97796.34
2023-05-19T20:14:24.896Z,97798.77
2023-05-19T20:16:52.799Z,97795.91
2023-05-19T20:19:21.140Z,97796.95
2023-05-19T20:21:49.292Z,97794.54
2023-05-19T20:24:17.138Z,97794.16
2023-05-19T20:26:45.175Z,97792.01
2023-05-19T20:29:13.039Z,97792.98
2023-05-19T20:31:41.226Z,97798.15
2023-05-19T20:34:09.147Z,97799.52
2023-05-19T20:36:39.834Z,97804.27
2023-05-19T20:39:09.717Z,97806.71
2023-05-19T20:41:37.600Z,97802.81
2023-05-19T20:44:08.702Z,97802.33
2023-05-19T20:46:36.761Z,97802.66
2023-05-19T20:49:04.713Z,97803.69
2023-05-19T20:51:32.891Z,97801.14
2023-05-19T20:54:01.033Z,97798.73
2023-05-19T20:56:28.895Z,97799.45
2023-05-19T20:58:56.739Z,97800.77
2023-05-19T21:01:26.271Z,97798.70
2023-05-19T21:03:54.171Z,97798.84
2023-05-19T21:06:22.037Z,97798.55
2023-05-19T21:08:50.089Z,97802.46
2023-05-19T21:11:17.955Z,97804.94
2023-05-19T21:13:45.823Z,97809.13
2023-05-19T21:16:13.618Z,97809.34
2023-05-19T21:18:41.526Z,97809.11
2023-05-19T21:21:09.548Z,97806.52
2023-05-19T21:23:37.460Z,97804.85
2023-05-19T21:26:06.639Z,97804.21
2023-05-19T21:28:34.652Z,97800.91
2023-05-19T21:31:02.700Z,97802.21
2023-05-19T21:33:31.303Z,97806.66
2023-05-19T21:36:00.503Z,97809.75
2023-05-19T21:38:28.516Z,97814.17
2023-05-19T21:40:56.476Z,97813.39
2023-05-19T21:43:24.542Z,97810.65
2023-05-19T21:45:52.593Z,97812.54
2023-05-19T21:48:21.669Z,97810.00
2023-05-19T21:50:55.911Z,97813.40
2023-05-19T21:53:24.570Z,97814.44
2023-05-19T21:55:52.646Z,97815.90
2023-05-19T21:58:20.526Z,97817.30
2023-05-19T22:00:53.179Z,97814.88
2023-05-19T22:03:21.850Z,97821.32
2023-05-19T22:05:50.862Z,97823.74
2023-05-19T22:08:19.889Z,97824.07
2023-05-19T22:10:52.095Z,97824.36
2023-05-19T22:13:20.267Z,97815.89
2023-05-19T22:15:48.239Z,97812.13
2023-05-19T22:18:16.920Z,97806.77
2023-05-19T22:20:44.902Z,97809.48
2023-05-19T22:23:12.766Z,97808.28
2023-05-19T22:25:40.745Z,97806.20
2023-05-19T22:28:09.261Z,97811.19
2023-05-19T22:30:41.014Z,97809.31
2023-05-19T22:33:09.655Z,97813.65
2023-05-19T22:35:37.699Z,97818.46
2023-05-19T22:38:05.713Z,97816.27
2023-05-19T22:40:34.572Z,97818.48
2023-05-19T22:43:02.838Z,97818.27
2023-05-19T22:45:31.532Z,97821.48
2023-05-19T22:47:59.757Z,97825.27
2023-05-19T22:50:27.865Z,97825.59
2023-05-19T22:52:55.842Z,97823.80
2023-05-19T22:55:23.752Z,97818.20
2023-05-19T22:57:51.687Z,97818.16
2023-05-19T23:00:21.163Z,97822.21
2023-05-19T23:02:49.005Z,97822.36
2023-05-19T23:05:16.861Z,97821.16
2023-05-19T23:07:44.751Z,97820.52
2023-05-19T23:10:12.903Z,97825.25
2023-05-19T23:12:40.832Z,97825.39
2023-05-19T23:15:09.838Z,97823.86
2023-05-19T23:17:38.158Z,97830.14
2023-05-19T23:20:06.630Z,97832.27
2023-05-19T23:22:34.437Z,97828.84
2023-05-19T23:25:07.702Z,97825.60
2023-05-19T23:27:36.211Z,97823.85
2023-05-19T23:30:04.943Z,97820.79
2023-05-19T23:32:32.870Z,97817.41
2023-05-19T23:35:15.790Z,97819.30
2023-05-19T23:37:43.727Z,97820.18
2023-05-19T23:40:12.098Z,97817.04
2023-05-19T23:42:39.958Z,97812.98
2023-05-19T23:45:08.491Z,97809.60
2023-05-19T23:47:36.784Z,97812.92
2023-05-19T23:50:04.941Z,97810.63
2023-05-19T23:52:32.939Z,97809.66
2023-05-19T23:55:00.887Z,97811.84
2023-05-19T23:57:28.876Z,97810.04
2023-05-19T23:59:56.778Z,97809.34
